Springdale, UT (84767)

3:14 AM MST on December 07, 2016 (GMT -0700)
Stone Mountain | | Change Station

Elev 3983 ft 37.20 °N, 113.00 °W | Updated 7 minutes ago

Clear
Clear
28.4 °F
Feels Like 28 °F
N
2.2
Wind Variable Wind from WNW

Today
High -- | Low -- °F
--% Chance of Precip.
Yesterday
High -- | Low -- °F
Precip. -- in
Pressure 29.99 in
Visibility 10.0 miles
Clouds Clear
Windchill 28 °F
Dew Point 16 °F
Humidity 58%
Rainfall 0.00 in
Snow Depth Not available.
7:32 AM 5:14 PM
Waxing Crescent, 51% visible
METAR KAZC 070955Z AUTO 12003KT 10SM CLR M03/M08 A2999 RMK AO2
Pressure 29.99 in
Visibility 10.0 miles
Clouds Clear
Windchill 28 °F
Dew Point 16 °F
Humidity 58%
Rainfall 0.00 in
Snow Depth Not available.
7:32 AM 5:14 PM
Waxing Crescent, 51% visible
METAR KAZC 070955Z AUTO 12003KT 10SM CLR M03/M08 A2999 RMK AO2

10-Day Weather Forecast

Almanac

Astronomy

Dec. 07, 2016 Rise Set
Actual Time
Civil Twilight
Nautical Twilight
Astronomical Twilight
Moon
Length of Visible Light
Length of Day
Tomorrow will be .
, % of the Moon is Illuminated

Today's Extremes

State Highs State Lows

Community

WunderPhotos

Upload Photos

1,956,111 photos uploaded!

WunderBlog® & News

Nearby

Air Quality

  Air Quality AQ Index Pollutant
Not available.

Snow Depth

Station Depth Elevation

Earthquake Activity

City Distance Mag. Time & Date
Minimum magnitude displayed is 2.5.

Coastal Water Temperatures

Place Temperature

Stations

Nearby Weather Stations

Station Location Temp. Windchill Dew Point Humidity Wind Precip. Elev Updated Type
                   

Watches & Warnings

There are currently no watches in effect.